createdAt,value
2023-01-06T00:00:44.049Z,80.85
2023-01-06T00:03:10.741Z,80.30
2023-01-06T00:05:37.440Z,80.28
2023-01-06T00:08:04.337Z,81.17
2023-01-06T00:10:31.063Z,80.41
2023-01-06T00:12:57.734Z,80.57
2023-01-06T00:15:24.418Z,80.94
2023-01-06T00:17:51.096Z,81.08
2023-01-06T00:20:17.928Z,80.28
2023-01-06T00:22:44.611Z,80.51
2023-01-06T00:25:11.404Z,80.23
2023-01-06T00:27:39.542Z,80.11
2023-01-06T00:30:07.727Z,81.06
2023-01-06T00:32:34.570Z,80.87
2023-01-06T00:35:01.541Z,81.00
2023-01-06T00:37:28.240Z,80.39
2023-01-06T00:39:54.988Z,80.13
2023-01-06T00:42:22.692Z,80.74
2023-01-06T00:44:49.853Z,80.75
2023-01-06T00:47:17.186Z,80.45
2023-01-06T00:49:43.923Z,80.33
2023-01-06T00:52:11.504Z,80.82
2023-01-06T00:54:38.263Z,80.22
2023-01-06T00:57:07.681Z,80.31
2023-01-06T00:59:34.609Z,80.60
2023-01-06T01:02:01.711Z,80.39
2023-01-06T01:04:29.389Z,80.68
2023-01-06T01:06:56.222Z,80.90
2023-01-06T01:09:26.192Z,80.42
2023-01-06T01:12:11.882Z,80.17
2023-01-06T01:14:42.951Z,80.12
2023-01-06T01:17:11.683Z,80.42
2023-01-06T01:19:39.204Z,79.96
2023-01-06T01:22:06.622Z,80.27
2023-01-06T01:24:33.789Z,80.32
2023-01-06T01:27:00.606Z,80.63
2023-01-06T01:29:27.377Z,80.76
2023-01-06T01:31:54.595Z,80.90
2023-01-06T01:34:22.031Z,80.92
2023-01-06T01:36:50.375Z,80.05
2023-01-06T01:39:19.534Z,80.50
2023-01-06T01:41:46.650Z,79.85
2023-01-06T01:44:47.132Z,80.91
2023-01-06T01:47:49.763Z,79.78
2023-01-06T01:50:33.698Z,80.29
2023-01-06T01:53:31.912Z,80.30
2023-01-06T01:56:02.738Z,80.90
2023-01-06T01:58:45.093Z,80.22
2023-01-06T02:01:13.108Z,80.28
2023-01-06T02:03:42.113Z,80.76
2023-01-06T02:06:15.980Z,80.29
2023-01-06T02:09:07.806Z,80.88
2023-01-06T02:11:36.422Z,79.80
2023-01-06T02:14:23.414Z,80.18
2023-01-06T02:16:50.013Z,80.94
2023-01-06T02:19:47.362Z,81.03
2023-01-06T02:22:20.218Z,79.88
2023-01-06T02:24:46.816Z,79.81
2023-01-06T02:27:34.683Z,80.60
2023-01-06T02:30:10.429Z,81.05
2023-01-06T02:32:52.410Z,80.59
2023-01-06T02:35:31.520Z,80.65
2023-01-06T02:38:31.423Z,80.56
2023-01-06T02:41:29.213Z,80.84
2023-01-06T02:44:27.800Z,81.03
2023-01-06T02:47:12.435Z,80.44
2023-01-06T02:50:00.400Z,80.76
2023-01-06T02:52:53.599Z,80.68
2023-01-06T02:55:35.953Z,79.98
2023-01-06T02:58:14.035Z,80.05
2023-01-06T03:00:49.188Z,80.89
2023-01-06T03:03:20.326Z,80.24
2023-01-06T03:05:51.219Z,80.82
2023-01-06T03:08:24.180Z,80.14
2023-01-06T03:10:52.321Z,79.81
2023-01-06T03:13:34.004Z,79.84
2023-01-06T03:16:01.034Z,80.00
2023-01-06T03:18:28.243Z,80.65
2023-01-06T03:20:58.375Z,80.64
2023-01-06T03:23:25.795Z,80.14
2023-01-06T03:25:53.112Z,80.46
2023-01-06T03:28:19.788Z,80.97
2023-01-06T03:30:55.791Z,80.97
2023-01-06T03:33:28.322Z,80.01
2023-01-06T03:36:08.062Z,79.90
2023-01-06T03:38:49.146Z,80.29
2023-01-06T03:41:21.494Z,80.31
2023-01-06T03:44:10.589Z,80.16
2023-01-06T03:46:51.079Z,80.02
2023-01-06T03:49:28.747Z,80.60
2023-01-06T03:52:19.681Z,80.27
2023-01-06T03:54:59.580Z,80.40
2023-01-06T03:57:39.475Z,80.07
2023-01-06T04:00:17.252Z,80.49
2023-01-06T04:02:45.752Z,79.94
2023-01-06T04:05:14.274Z,79.94
2023-01-06T04:07:42.504Z,80.33
2023-01-06T04:10:10.517Z,80.12
2023-01-06T04:12:40.210Z,80.48
2023-01-06T04:15:10.519Z,79.73
2023-01-06T04:17:38.591Z,80.32
2023-01-06T04:20:07.368Z,79.62
2023-01-06T04:22:34.915Z,80.22
2023-01-06T04:25:01.710Z,80.15
2023-01-06T04:27:28.753Z,80.20
2023-01-06T04:29:55.592Z,80.59
2023-01-06T04:32:22.326Z,79.86
2023-01-06T04:34:49.018Z,79.86
2023-01-06T04:37:15.898Z,79.80
2023-01-06T04:39:42.654Z,79.76
2023-01-06T04:42:09.704Z,79.84
2023-01-06T04:44:36.468Z,80.03
2023-01-06T04:47:03.460Z,80.04
2023-01-06T04:49:30.168Z,80.56
2023-01-06T04:51:56.833Z,80.54
2023-01-06T04:54:23.508Z,80.83
2023-01-06T04:56:50.153Z,79.84
2023-01-06T04:59:16.904Z,79.92
2023-01-06T05:01:43.634Z,80.16
2023-01-06T05:04:10.425Z,79.83
2023-01-06T05:06:39.439Z,80.57
2023-01-06T05:09:07.170Z,80.23
2023-01-06T05:11:33.952Z,80.46
2023-01-06T05:14:00.804Z,79.77
2023-01-06T05:16:32.864Z,79.89
2023-01-06T05:19:00.498Z,79.93
2023-01-06T05:21:32.281Z,79.47
2023-01-06T05:23:59.623Z,79.66
2023-01-06T05:26:27.654Z,80.50
2023-01-06T05:28:54.954Z,79.77
2023-01-06T05:31:21.882Z,79.73
2023-01-06T05:33:48.647Z,80.48
2023-01-06T05:36:17.162Z,80.09
2023-01-06T05:38:44.860Z,80.35
2023-01-06T05:41:11.900Z,79.61
2023-01-06T05:43:38.975Z,79.89
2023-01-06T05:46:07.493Z,80.52
2023-01-06T05:48:34.411Z,79.93
2023-01-06T05:51:12.732Z,80.60
2023-01-06T05:53:41.661Z,80.03
2023-01-06T05:56:12.407Z,80.37
2023-01-06T05:58:42.430Z,81.21
2023-01-06T06:01:29.024Z,80.11
2023-01-06T06:03:56.085Z,80.24
2023-01-06T06:06:24.487Z,81.22
2023-01-06T06:08:51.572Z,81.05
2023-01-06T06:11:19.819Z,81.42
2023-01-06T06:13:48.006Z,80.41
2023-01-06T06:16:16.228Z,81.49
2023-01-06T06:18:43.105Z,81.18
2023-01-06T06:21:15.740Z,80.37
2023-01-06T06:23:43.225Z,81.42
2023-01-06T06:26:11.487Z,80.41
2023-01-06T06:28:39.389Z,81.20
2023-01-06T06:31:07.399Z,81.26
2023-01-06T06:33:34.690Z,81.05
2023-01-06T06:36:02.419Z,80.81
2023-01-06T06:38:29.336Z,80.32
2023-01-06T06:40:57.839Z,80.58
2023-01-06T06:43:24.608Z,80.85
2023-01-06T06:45:51.316Z,81.61
2023-01-06T06:48:17.996Z,81.40
2023-01-06T06:50:44.647Z,80.67
2023-01-06T06:53:11.411Z,80.71
2023-01-06T06:55:38.220Z,81.21
2023-01-06T06:58:04.911Z,81.27
2023-01-06T07:00:31.632Z,80.70
2023-01-06T07:02:58.358Z,81.09
2023-01-06T07:05:25.814Z,81.02
2023-01-06T07:07:52.663Z,81.54
2023-01-06T07:10:19.618Z,80.76
2023-01-06T07:12:46.359Z,81.18
2023-01-06T07:15:15.647Z,81.46
2023-01-06T07:17:42.544Z,80.87
2023-01-06T07:20:10.537Z,81.54
2023-01-06T07:22:40.620Z,81.07
2023-01-06T07:25:09.013Z,81.18
2023-01-06T07:27:35.977Z,81.40
2023-01-06T07:30:04.580Z,81.24
2023-01-06T07:32:31.274Z,81.68
2023-01-06T07:34:58.009Z,81.49
2023-01-06T07:37:24.695Z,81.45
2023-01-06T07:39:51.368Z,80.98
2023-01-06T07:42:18.016Z,81.74
2023-01-06T07:44:44.714Z,81.30
2023-01-06T07:47:11.421Z,81.67
2023-01-06T07:49:38.444Z,81.63
2023-01-06T07:52:05.200Z,81.50
2023-01-06T07:54:32.242Z,81.65
2023-01-06T07:56:58.977Z,81.69
2023-01-06T07:59:25.751Z,81.35
2023-01-06T08:01:52.587Z,81.38
2023-01-06T08:04:19.343Z,81.60
2023-01-06T08:06:46.133Z,81.71
2023-01-06T08:09:12.822Z,81.94
2023-01-06T08:11:39.471Z,81.25
2023-01-06T08:14:06.207Z,81.52
2023-01-06T08:16:32.920Z,81.90
2023-01-06T08:18:59.583Z,81.47
2023-01-06T08:21:30.874Z,81.67
2023-01-06T08:23:57.593Z,81.86
2023-01-06T08:26:24.377Z,81.88
2023-01-06T08:28:53.558Z,81.16
2023-01-06T08:31:21.604Z,81.53
2023-01-06T08:33:49.477Z,82.18
2023-01-06T08:36:18.409Z,81.47
2023-01-06T08:38:45.918Z,81.52
2023-01-06T08:41:12.715Z,81.87
2023-01-06T08:43:41.949Z,81.50
2023-01-06T08:46:12.253Z,81.89
2023-01-06T08:48:39.212Z,81.67
2023-01-06T08:51:13.334Z,81.94
2023-01-06T08:53:40.134Z,81.94
2023-01-06T08:56:16.669Z,82.07
2023-01-06T08:58:43.456Z,81.91
2023-01-06T09:01:21.519Z,81.80
2023-01-06T09:03:48.335Z,81.52
2023-01-06T09:06:15.221Z,81.50
2023-01-06T09:08:42.173Z,81.56
2023-01-06T09:11:11.418Z,81.60
2023-01-06T09:13:38.720Z,81.63
2023-01-06T09:16:07.214Z,81.73
2023-01-06T09:18:34.553Z,81.64
2023-01-06T09:21:01.294Z,81.51
2023-01-06T09:23:28.554Z,81.52
2023-01-06T09:25:56.524Z,81.52
2023-01-06T09:28:23.338Z,81.55
2023-01-06T09:30:50.621Z,81.75
2023-01-06T09:33:17.768Z,81.12
2023-01-06T09:35:45.437Z,81.24
2023-01-06T09:38:12.916Z,81.97
2023-01-06T09:41:04.032Z,80.99
2023-01-06T09:43:48.278Z,81.42
2023-01-06T09:46:19.837Z,81.21
2023-01-06T09:49:25.894Z,81.57
2023-01-06T09:51:59.933Z,81.07
2023-01-06T09:54:41.285Z,81.47
2023-01-06T09:57:16.861Z,81.48
2023-01-06T09:59:56.481Z,81.24
2023-01-06T10:02:36.006Z,81.47
2023-01-06T10:05:14.465Z,80.97
2023-01-06T10:07:55.619Z,81.08
2023-01-06T10:10:38.097Z,81.22
2023-01-06T10:13:32.754Z,81.20
2023-01-06T10:16:13.147Z,81.36
2023-01-06T10:18:54.551Z,81.14
2023-01-06T10:21:31.344Z,80.86
2023-01-06T10:24:31.461Z,80.63
2023-01-06T10:27:02.241Z,80.59
2023-01-06T10:29:35.015Z,80.67
2023-01-06T10:32:03.681Z,80.73
2023-01-06T10:34:33.532Z,80.48
2023-01-06T10:37:39.874Z,80.77
2023-01-06T10:40:22.549Z,80.48
2023-01-06T10:43:02.644Z,80.68
2023-01-06T10:45:37.965Z,80.90
2023-01-06T10:48:11.056Z,80.79
2023-01-06T10:50:38.352Z,80.38
2023-01-06T10:53:05.344Z,80.52
2023-01-06T10:55:38.276Z,80.98
2023-01-06T10:58:30.274Z,80.49
2023-01-06T11:01:08.228Z,80.41
2023-01-06T11:03:35.680Z,80.46
2023-01-06T11:06:28.263Z,80.16
2023-01-06T11:08:55.408Z,79.94
2023-01-06T11:11:28.683Z,80.54
2023-01-06T11:13:59.850Z,80.65
2023-01-06T11:16:30.573Z,80.61
2023-01-06T11:19:01.298Z,80.13
2023-01-06T11:21:40.689Z,80.18
2023-01-06T11:24:19.837Z,79.83
2023-01-06T11:26:53.558Z,79.64
2023-01-06T11:29:25.735Z,79.74
2023-01-06T11:31:53.073Z,79.98
2023-01-06T11:34:26.361Z,80.02
2023-01-06T11:36:53.445Z,79.67
2023-01-06T11:39:29.766Z,80.50
2023-01-06T11:42:02.959Z,79.67
2023-01-06T11:44:35.550Z,80.03
2023-01-06T11:47:16.249Z,80.22
2023-01-06T11:49:48.251Z,80.03
2023-01-06T11:52:17.856Z,79.88
2023-01-06T11:54:45.727Z,79.54
2023-01-06T11:57:24.682Z,79.94
2023-01-06T11:59:59.904Z,80.37
2023-01-06T12:02:42.589Z,80.35
2023-01-06T12:05:43.553Z,79.91
2023-01-06T12:08:28.565Z,79.80
2023-01-06T12:11:11.173Z,80.17
2023-01-06T12:13:44.352Z,79.57
2023-01-06T12:16:17.675Z,79.94
2023-01-06T12:18:45.287Z,79.79
2023-01-06T12:21:19.189Z,80.48
2023-01-06T12:23:46.388Z,80.22
2023-01-06T12:26:19.834Z,79.87
2023-01-06T12:28:48.816Z,79.88
2023-01-06T12:31:30.656Z,79.98
2023-01-06T12:34:00.399Z,80.48
2023-01-06T12:36:27.959Z,79.71
2023-01-06T12:39:03.122Z,80.30
2023-01-06T12:41:58.469Z,80.08
2023-01-06T12:44:44.897Z,79.77
2023-01-06T12:47:28.322Z,79.96
2023-01-06T12:50:24.197Z,80.05
2023-01-06T12:53:20.588Z,80.25
2023-01-06T12:55:59.845Z,79.48
2023-01-06T12:58:38.377Z,79.61
2023-01-06T13:01:20.438Z,79.16
2023-01-06T13:04:14.867Z,79.67
2023-01-06T13:07:05.224Z,79.41
2023-01-06T13:09:49.632Z,79.26
2023-01-06T13:12:56.385Z,79.07
2023-01-06T13:15:32.727Z,78.53
2023-01-06T13:18:14.547Z,78.99
2023-01-06T13:20:41.156Z,79.12
2023-01-06T13:23:35.650Z,79.30
2023-01-06T13:26:39.735Z,79.08
2023-01-06T13:29:29.723Z,78.74
2023-01-06T13:32:23.800Z,79.03
2023-01-06T13:35:09.003Z,78.68
2023-01-06T13:37:49.580Z,78.60
2023-01-06T13:40:29.606Z,78.94
2023-01-06T13:43:04.247Z,79.35
2023-01-06T13:45:34.538Z,79.02
2023-01-06T13:48:08.762Z,79.20
2023-01-06T13:50:38.452Z,78.61
2023-01-06T13:53:06.693Z,78.86
2023-01-06T13:55:39.091Z,79.22
2023-01-06T13:58:29.083Z,78.76
2023-01-06T14:01:12.495Z,78.17
2023-01-06T14:03:41.683Z,78.29
2023-01-06T14:06:32.906Z,78.60
2023-01-06T14:09:01.201Z,78.48
2023-01-06T14:11:27.878Z,78.14
2023-01-06T14:14:03.781Z,78.15
2023-01-06T14:16:49.089Z,78.46
2023-01-06T14:19:23.040Z,78.42
2023-01-06T14:21:52.901Z,78.15
2023-01-06T14:24:34.132Z,78.37
2023-01-06T14:27:04.884Z,77.90
2023-01-06T14:29:40.722Z,78.24
2023-01-06T14:32:08.702Z,78.70
2023-01-06T14:34:38.511Z,78.30
2023-01-06T14:37:11.712Z,78.40
2023-01-06T14:39:41.724Z,78.37
2023-01-06T14:42:30.107Z,78.42
2023-01-06T14:45:00.311Z,78.61
2023-01-06T14:47:34.602Z,78.51
2023-01-06T14:50:09.194Z,78.65
2023-01-06T14:52:41.110Z,78.78
2023-01-06T14:55:16.742Z,78.26
2023-01-06T14:57:43.496Z,78.62
2023-01-06T15:00:24.138Z,78.34
2023-01-06T15:02:54.102Z,78.59
2023-01-06T15:05:27.297Z,78.71
2023-01-06T15:08:16.211Z,78.44
2023-01-06T15:10:51.844Z,78.64
2023-01-06T15:13:28.304Z,78.80
2023-01-06T15:16:31.431Z,78.83
2023-01-06T15:18:59.168Z,78.49
2023-01-06T15:21:26.052Z,78.60
2023-01-06T15:23:55.315Z,78.65
2023-01-06T15:26:27.474Z,78.46
2023-01-06T15:29:13.115Z,78.70
2023-01-06T15:31:40.833Z,78.56
2023-01-06T15:34:23.050Z,78.64
2023-01-06T15:36:54.207Z,79.16
2023-01-06T15:39:29.681Z,78.96
2023-01-06T15:41:58.490Z,79.01
2023-01-06T15:44:35.994Z,78.31
2023-01-06T15:47:23.689Z,78.21
2023-01-06T15:49:56.918Z,78.65
2023-01-06T15:52:40.081Z,78.61
2023-01-06T15:55:18.515Z,78.51
2023-01-06T15:57:54.359Z,78.84
2023-01-06T16:00:27.204Z,78.83
2023-01-06T16:02:54.278Z,79.02
2023-01-06T16:05:49.770Z,78.52
2023-01-06T16:08:26.156Z,78.52
2023-01-06T16:11:12.853Z,78.47
2023-01-06T16:13:40.424Z,78.59
2023-01-06T16:16:16.035Z,78.55
2023-01-06T16:18:44.483Z,78.58
2023-01-06T16:21:16.361Z,78.56
2023-01-06T16:23:50.022Z,78.44
2023-01-06T16:26:20.581Z,78.68
2023-01-06T16:28:50.316Z,78.54
2023-01-06T16:31:33.028Z,78.49
2023-01-06T16:34:26.714Z,78.26
2023-01-06T16:36:58.668Z,78.67
2023-01-06T16:39:26.762Z,78.18
2023-01-06T16:41:59.374Z,78.38
2023-01-06T16:44:26.770Z,78.53
2023-01-06T16:46:53.440Z,78.22
2023-01-06T16:49:21.417Z,78.44
2023-01-06T16:51:48.310Z,78.21
2023-01-06T16:54:19.788Z,78.17
2023-01-06T16:56:46.991Z,78.25
2023-01-06T16:59:16.304Z,78.31
2023-01-06T17:01:47.880Z,78.11
2023-01-06T17:04:15.854Z,78.11
2023-01-06T17:06:44.301Z,77.85
2023-01-06T17:09:20.103Z,78.10
2023-01-06T17:11:48.553Z,78.16
2023-01-06T17:14:17.763Z,78.20
2023-01-06T17:16:44.918Z,78.51
2023-01-06T17:19:14.564Z,77.77
2023-01-06T17:21:41.611Z,78.38
2023-01-06T17:24:08.200Z,78.85
2023-01-06T17:26:35.223Z,78.17
2023-01-06T17:29:02.584Z,78.10
2023-01-06T17:31:32.988Z,78.02
2023-01-06T17:34:12.417Z,77.62
2023-01-06T17:36:41.138Z,77.81
2023-01-06T17:39:26.790Z,78.03
2023-01-06T17:42:22.409Z,78.16
2023-01-06T17:44:54.358Z,78.00
2023-01-06T17:47:20.958Z,77.85
2023-01-06T17:49:56.791Z,77.89
2023-01-06T17:52:36.762Z,77.65
2023-01-06T17:55:32.257Z,78.36
2023-01-06T17:57:59.277Z,77.73
2023-01-06T18:00:33.464Z,78.03
2023-01-06T18:03:06.035Z,78.48
2023-01-06T18:05:35.494Z,78.02
2023-01-06T18:08:22.942Z,78.06
2023-01-06T18:10:57.267Z,78.25
2023-01-06T18:13:30.310Z,77.62
2023-01-06T18:15:58.826Z,78.01
2023-01-06T18:18:34.120Z,77.56
2023-01-06T18:21:14.182Z,77.99
2023-01-06T18:23:44.371Z,77.89
2023-01-06T18:26:26.349Z,77.74
2023-01-06T18:29:06.840Z,77.55
2023-01-06T18:31:35.978Z,77.38
2023-01-06T18:34:18.207Z,77.52
2023-01-06T18:36:47.796Z,78.01
2023-01-06T18:39:24.283Z,77.60
2023-01-06T18:42:01.776Z,77.70
2023-01-06T18:44:28.988Z,77.62
2023-01-06T18:46:55.638Z,77.39
2023-01-06T18:49:25.450Z,77.87
2023-01-06T18:51:52.080Z,78.14
2023-01-06T18:54:19.841Z,77.99
2023-01-06T18:56:46.482Z,78.00
2023-01-06T18:59:18.397Z,78.35
2023-01-06T19:01:50.775Z,78.01
2023-01-06T19:04:22.135Z,77.88
2023-01-06T19:07:11.602Z,77.55
2023-01-06T19:09:41.484Z,77.98
2023-01-06T19:12:08.085Z,77.82
2023-01-06T19:14:39.392Z,77.88
2023-01-06T19:17:30.094Z,78.25
2023-01-06T19:19:59.393Z,78.16
2023-01-06T19:22:30.398Z,77.64
2023-01-06T19:25:18.376Z,77.56
2023-01-06T19:27:58.460Z,78.17
2023-01-06T19:30:47.115Z,78.45
2023-01-06T19:33:37.442Z,78.06
2023-01-06T19:36:32.456Z,78.49
2023-01-06T19:39:02.700Z,78.38
2023-01-06T19:41:32.044Z,78.22
2023-01-06T19:44:12.094Z,78.05
2023-01-06T19:46:45.098Z,78.08
2023-01-06T19:49:26.559Z,78.61
2023-01-06T19:51:54.799Z,78.34
2023-01-06T19:54:28.839Z,78.96
2023-01-06T19:56:56.573Z,78.04
2023-01-06T19:59:30.312Z,78.39
2023-01-06T20:02:04.273Z,79.07
2023-01-06T20:04:31.045Z,78.72
2023-01-06T20:06:57.731Z,79.00
2023-01-06T20:09:24.681Z,78.10
2023-01-06T20:11:51.883Z,78.28
2023-01-06T20:14:19.147Z,78.90
2023-01-06T20:16:46.987Z,78.57
2023-01-06T20:19:15.740Z,78.87
2023-01-06T20:21:43.387Z,79.25
2023-01-06T20:24:11.812Z,79.39
2023-01-06T20:26:38.498Z,78.79
2023-01-06T20:29:05.965Z,79.17
2023-01-06T20:31:33.019Z,79.26
2023-01-06T20:33:59.891Z,78.92
2023-01-06T20:36:27.002Z,79.02
2023-01-06T20:38:53.731Z,79.02
2023-01-06T20:41:20.406Z,78.94
2023-01-06T20:43:47.104Z,79.36
2023-01-06T20:46:14.725Z,79.13
2023-01-06T20:48:41.500Z,79.10
2023-01-06T20:51:08.932Z,79.16
2023-01-06T20:53:36.031Z,79.29
2023-01-06T20:56:02.752Z,79.25
2023-01-06T20:58:29.510Z,79.48
2023-01-06T21:00:56.274Z,79.48
2023-01-06T21:03:22.969Z,79.06
2023-01-06T21:05:49.685Z,79.54
2023-01-06T21:08:16.329Z,79.95
2023-01-06T21:10:43.036Z,79.46
2023-01-06T21:13:10.028Z,79.40
2023-01-06T21:15:36.761Z,79.76
2023-01-06T21:18:03.559Z,79.15
2023-01-06T21:20:30.269Z,79.97
2023-01-06T21:22:56.917Z,79.16
2023-01-06T21:25:24.872Z,79.41
2023-01-06T21:27:51.787Z,79.30
2023-01-06T21:30:18.598Z,79.56
2023-01-06T21:32:45.261Z,79.59
2023-01-06T21:35:12.179Z,79.52
2023-01-06T21:37:38.880Z,79.61
2023-01-06T21:40:09.123Z,79.67
2023-01-06T21:42:54.466Z,79.58
2023-01-06T21:45:21.132Z,79.85
2023-01-06T21:47:47.779Z,79.49
2023-01-06T21:50:14.518Z,79.77
2023-01-06T21:52:41.362Z,79.50
2023-01-06T21:55:08.559Z,79.67
2023-01-06T21:57:36.208Z,79.33
2023-01-06T22:00:05.218Z,79.79
2023-01-06T22:02:32.290Z,79.83
2023-01-06T22:04:59.033Z,79.58
2023-01-06T22:07:25.792Z,79.74
2023-01-06T22:09:53.773Z,79.33
2023-01-06T22:12:21.086Z,79.62
2023-01-06T22:14:50.372Z,79.87
2023-01-06T22:17:18.432Z,79.62
2023-01-06T22:19:46.361Z,79.97
2023-01-06T22:22:13.781Z,79.91
2023-01-06T22:24:41.023Z,79.95
2023-01-06T22:27:07.733Z,80.24
2023-01-06T22:29:34.461Z,79.61
2023-01-06T22:32:05.505Z,79.75
2023-01-06T22:34:32.456Z,79.61
2023-01-06T22:36:59.238Z,79.42
2023-01-06T22:39:26.001Z,80.20
2023-01-06T22:41:53.973Z,79.86
2023-01-06T22:44:20.693Z,79.79
2023-01-06T22:46:47.347Z,80.15
2023-01-06T22:49:15.006Z,79.82
2023-01-06T22:51:41.779Z,80.08
2023-01-06T22:54:08.452Z,80.03
2023-01-06T22:56:35.420Z,80.01
2023-01-06T22:59:02.341Z,80.04
2023-01-06T23:01:29.148Z,80.17
2023-01-06T23:03:55.836Z,80.14
2023-01-06T23:06:22.608Z,80.20
2023-01-06T23:08:59.603Z,79.90
2023-01-06T23:11:28.226Z,79.69
2023-01-06T23:13:56.945Z,79.92
2023-01-06T23:16:26.523Z,80.24
2023-01-06T23:18:54.331Z,80.16
2023-01-06T23:21:26.880Z,80.29
2023-01-06T23:23:54.094Z,80.28
2023-01-06T23:26:24.882Z,80.44
2023-01-06T23:28:52.938Z,79.84
2023-01-06T23:31:24.994Z,80.57
2023-01-06T23:33:55.971Z,80.15
2023-01-06T23:36:24.453Z,80.73
2023-01-06T23:38:51.632Z,79.79
2023-01-06T23:41:20.360Z,80.01
2023-01-06T23:43:48.477Z,80.28
2023-01-06T23:46:17.809Z,80.15
2023-01-06T23:48:45.602Z,80.19
2023-01-06T23:51:13.135Z,80.18
2023-01-06T23:53:40.653Z,80.52
2023-01-06T23:56:13.935Z,80.59
2023-01-06T23:58:42.828Z,80.56
